Time;durP1;ratioP1;P1;durP2;ratioP2;P2;SDS_P1;SDS_P2;PMS_P1;PMS_P2;Temp;Humidity;BMP_temperature;BMP_pressure;BME280_temperature;BME280_humidity;BME280_pressure;Samples;Min_cycle;Max_cycle;Signal;HPM_P1;HPM_P2
2022/06/29 00:02:09;;;;;;;8.60;3.25;;;18.80;99.90;;;;;;4975499;28;25071;-71
2022/06/29 00:04:34;;;;;;;8.55;3.65;;;18.90;99.90;;;;;;4968218;28;25086;-72
2022/06/29 00:07:00;;;;;;;9.40;3.40;;;18.80;99.90;;;;;;4987492;28;25062;-72
2022/06/29 00:09:26;;;;;;;6.57;3.15;;;18.70;99.90;;;;;;4974819;28;25057;-71
2022/06/29 00:11:51;;;;;;;6.80;3.50;;;18.70;99.90;;;;;;4977254;28;25058;-73
2022/06/29 00:14:17;;;;;;;7.75;2.97;;;18.70;99.90;;;;;;4983334;28;25076;-71
2022/06/29 00:16:43;;;;;;;6.03;3.17;;;18.70;99.90;;;;;;4986872;28;25113;-73
2022/06/29 00:19:08;;;;;;;6.07;2.95;;;18.60;99.90;;;;;;4973101;28;25130;-72
2022/06/29 00:21:34;;;;;;;2.80;2.30;;;18.50;99.90;;;;;;4978680;28;25077;-71
2022/06/29 00:23:59;;;;;;;7.28;2.83;;;18.40;99.90;;;;;;4990945;28;25045;-73
2022/06/29 00:26:27;;;;;;;6.57;2.70;;;18.50;99.90;;;;;;4988002;28;25088;-74
2022/06/29 00:28:53;;;;;;;4.57;2.40;;;18.50;99.90;;;;;;4981008;28;25075;-72
2022/06/29 00:31:19;;;;;;;5.50;2.80;;;18.50;99.90;;;;;;4971927;28;25059;-71
2022/06/29 00:33:44;;;;;;;7.28;2.75;;;18.40;99.90;;;;;;4975516;28;25070;-71
2022/06/29 00:36:10;;;;;;;4.53;3.05;;;18.40;99.90;;;;;;4981162;28;25065;-72
2022/06/29 00:38:36;;;;;;;12.80;3.00;;;18.40;99.90;;;;;;4966756;28;25078;-71
2022/06/29 00:41:02;;;;;;;8.30;2.55;;;18.40;99.90;;;;;;4981249;28;25142;-71
2022/06/29 00:43:28;;;;;;;9.60;2.83;;;18.30;99.90;;;;;;4968782;28;25067;-70
2022/06/29 00:45:53;;;;;;;5.63;3.13;;;18.30;99.90;;;;;;4968300;28;25119;-69
2022/06/29 00:48:19;;;;;;;6.90;2.85;;;18.30;99.90;;;;;;4968622;28;25135;-70
2022/06/29 00:50:46;;;;;;;6.85;2.92;;;18.30;99.90;;;;;;4966816;28;25068;-70
2022/06/29 00:53:16;;;;;;;6.63;2.75;;;18.30;99.90;;;;;;4969704;28;25105;-71
2022/06/29 00:55:44;;;;;;;11.02;3.25;;;18.30;99.90;;;;;;4966082;28;25098;-69
2022/06/29 00:58:11;;;;;;;8.90;3.45;;;18.20;99.90;;;;;;4980871;28;25049;-69
2022/06/29 01:00:37;;;;;;;5.03;3.33;;;18.20;99.90;;;;;;4985826;28;25090;-70
2022/06/29 01:03:03;;;;;;;6.80;3.83;;;18.20;99.90;;;;;;4972232;28;25048;-71
2022/06/29 01:05:31;;;;;;;6.05;3.58;;;18.10;99.90;;;;;;4963531;28;25093;-71
2022/06/29 01:07:57;;;;;;;6.90;3.42;;;18.00;99.90;;;;;;4986916;28;25092;-70
2022/06/29 01:10:23;;;;;;;5.35;3.75;;;18.00;99.90;;;;;;4969361;28;25126;-71
2022/06/29 01:12:51;;;;;;;6.47;3.83;;;17.90;99.90;;;;;;4967331;28;25084;-70
2022/06/29 01:15:20;;;;;;;9.45;3.60;;;18.00;99.90;;;;;;4975122;28;25056;-70
2022/06/29 01:17:46;;;;;;;9.85;3.90;;;18.00;99.90;;;;;;4972100;28;25137;-71
2022/06/29 01:20:13;;;;;;;7.28;3.92;;;18.00;99.90;;;;;;4973608;28;25094;-71
2022/06/29 01:22:40;;;;;;;6.50;3.75;;;18.00;99.90;;;;;;4974992;28;25148;-70
2022/06/29 01:25:07;;;;;;;6.30;3.47;;;18.00;99.90;;;;;;4982245;28;25085;-71
2022/06/29 01:27:32;;;;;;;8.00;3.78;;;17.90;99.90;;;;;;4982150;28;25124;-69
2022/06/29 01:29:59;;;;;;;6.95;3.78;;;17.90;99.90;;;;;;4984822;28;25064;-69
2022/06/29 01:32:27;;;;;;;5.63;3.80;;;17.80;99.90;;;;;;4978675;28;25067;-69
2022/06/29 01:34:53;;;;;;;8.30;4.13;;;17.90;99.90;;;;;;4985096;28;25086;-69
2022/06/29 01:37:18;;;;;;;8.95;3.88;;;17.80;99.90;;;;;;4993489;28;25070;-72
2022/06/29 01:39:44;;;;;;;6.40;3.30;;;17.80;99.90;;;;;;4980290;28;25108;-70
2022/06/29 01:42:10;;;;;;;8.30;3.63;;;17.80;99.90;;;;;;4991483;28;25068;-70
2022/06/29 01:44:39;;;;;;;4.90;3.28;;;17.70;99.90;;;;;;4993751;28;25069;-69
2022/06/29 01:47:05;;;;;;;7.13;3.90;;;17.80;99.90;;;;;;4993961;28;25050;-68
2022/06/29 01:49:31;;;;;;;7.25;3.80;;;17.80;99.90;;;;;;4990455;28;25118;-68
2022/06/29 01:51:58;;;;;;;9.30;4.65;;;17.70;99.90;;;;;;4989100;28;25059;-68
2022/06/29 01:54:23;;;;;;;10.70;4.18;;;17.60;99.90;;;;;;4983335;28;25089;-69
2022/06/29 01:56:49;;;;;;;10.98;4.75;;;17.60;99.90;;;;;;4978878;28;25100;-71
2022/06/29 01:59:15;;;;;;;5.88;4.30;;;17.60;99.90;;;;;;4989006;28;25123;-72
2022/06/29 02:01:40;;;;;;;9.48;4.40;;;17.60;99.90;;;;;;4986369;28;25088;-69
2022/06/29 02:04:07;;;;;;;9.80;4.47;;;17.50;99.90;;;;;;4997873;28;25109;-70
2022/06/29 02:06:33;;;;;;;5.35;4.43;;;17.50;99.90;;;;;;4995395;28;25070;-67
2022/06/29 02:08:59;;;;;;;6.05;3.92;;;17.50;99.90;;;;;;4996649;28;25078;-68
2022/06/29 02:11:24;;;;;;;10.00;4.38;;;17.50;99.90;;;;;;4989707;28;25115;-68
2022/06/29 02:13:51;;;;;;;5.15;4.50;;;17.50;99.90;;;;;;4989619;28;25076;-69
2022/06/29 02:16:17;;;;;;;6.78;4.60;;;17.50;99.90;;;;;;4996682;28;25067;-68
2022/06/29 02:18:43;;;;;;;8.35;4.53;;;17.40;99.90;;;;;;4988091;28;25063;-68
2022/06/29 02:21:09;;;;;;;7.95;3.97;;;17.40;99.90;;;;;;4970697;28;25093;-69
2022/06/29 02:23:35;;;;;;;9.52;4.78;;;17.40;99.90;;;;;;4972664;28;25066;-68
2022/06/29 02:26:01;;;;;;;6.78;4.50;;;17.30;99.90;;;;;;4980754;28;25109;-69
2022/06/29 02:28:27;;;;;;;8.10;4.72;;;17.40;99.90;;;;;;4989023;28;25096;-69
2022/06/29 02:36:22;;;;;;;6.30;4.85;;;17.40;99.90;;;;;;4988143;28;25057;-73
2022/06/29 02:38:48;;;;;;;9.32;5.18;;;17.30;99.90;;;;;;4982674;28;25086;-69
2022/06/29 02:41:14;;;;;;;7.75;4.30;;;17.30;99.90;;;;;;4976043;28;25109;-71
2022/06/29 02:43:40;;;;;;;10.93;5.03;;;17.20;99.90;;;;;;4991208;28;25083;-69
2022/06/29 02:46:06;;;;;;;10.82;4.47;;;17.20;99.90;;;;;;4993671;28;25092;-69
2022/06/29 02:48:32;;;;;;;5.22;4.43;;;17.20;99.90;;;;;;4994517;28;25368;-71
2022/06/29 02:51:00;;;;;;;9.48;5.00;;;17.20;99.90;;;;;;4989916;28;25075;-72
2022/06/29 02:53:26;;;;;;;9.07;4.70;;;17.20;99.90;;;;;;4987051;28;25090;-70
2022/06/29 02:55:53;;;;;;;6.75;4.82;;;17.20;99.90;;;;;;4986295;28;25083;-70
2022/06/29 02:58:19;;;;;;;5.93;4.55;;;17.20;99.90;;;;;;4987545;28;25161;-69
2022/06/29 03:00:48;;;;;;;7.00;5.00;;;17.20;99.90;;;;;;4992728;28;25086;-69
2022/06/29 03:03:15;;;;;;;11.15;4.72;;;17.10;99.90;;;;;;4973602;28;25062;-71
2022/06/29 03:05:41;;;;;;;8.70;5.07;;;17.10;99.90;;;;;;4990263;28;25076;-71
2022/06/29 03:08:06;;;;;;;11.35;4.68;;;17.10;99.90;;;;;;4993678;28;25185;-71
2022/06/29 03:10:32;;;;;;;8.50;5.22;;;17.00;99.90;;;;;;4979835;28;25076;-69
2022/06/29 03:12:58;;;;;;;8.85;5.45;;;17.10;99.90;;;;;;4989182;28;25105;-70
2022/06/29 03:15:27;;;;;;;13.00;6.00;;;17.00;99.90;;;;;;4981302;28;25081;-70
2022/06/29 03:17:55;;;;;;;9.60;5.07;;;16.90;99.90;;;;;;4992890;28;25085;-69
2022/06/29 03:20:22;;;;;;;13.77;5.72;;;16.90;99.90;;;;;;4986684;28;25073;-71
2022/06/29 03:22:48;;;;;;;9.40;5.15;;;16.90;99.90;;;;;;5001523;28;25058;-69
2022/06/29 03:25:14;;;;;;;6.93;5.53;;;16.90;99.90;;;;;;4982257;28;25114;-69
2022/06/29 03:27:40;;;;;;;10.45;5.53;;;16.90;99.90;;;;;;4979535;28;25072;-72
2022/06/29 03:30:06;;;;;;;9.70;5.53;;;16.90;99.90;;;;;;4974660;28;25079;-70
2022/06/29 03:32:32;;;;;;;9.73;6.38;;;16.90;99.90;;;;;;4975620;28;25092;-71
2022/06/29 03:34:58;;;;;;;8.98;5.07;;;16.80;99.90;;;;;;4983917;28;25167;-68
2022/06/29 03:37:23;;;;;;;5.85;5.20;;;16.90;99.90;;;;;;4977432;28;25078;-69
2022/06/29 03:39:49;;;;;;;8.43;5.40;;;16.90;99.90;;;;;;4987283;28;25107;-70
2022/06/29 03:42:15;;;;;;;11.88;6.00;;;16.90;99.90;;;;;;4972278;28;25078;-71
2022/06/29 03:44:41;;;;;;;11.27;5.35;;;16.80;99.90;;;;;;4973961;28;25105;-69
2022/06/29 03:47:07;;;;;;;8.18;5.57;;;16.80;99.90;;;;;;4977406;28;25051;-70
2022/06/29 03:49:33;;;;;;;6.50;5.53;;;16.80;99.90;;;;;;4983427;28;25056;-71
2022/06/29 03:51:59;;;;;;;11.70;6.25;;;16.80;99.90;;;;;;4987652;28;25054;-73
2022/06/29 03:54:25;;;;;;;11.75;6.35;;;16.80;99.90;;;;;;4981347;28;25080;-70
2022/06/29 03:56:50;;;;;;;10.15;6.10;;;16.90;99.90;;;;;;4987862;28;25136;-70
2022/06/29 03:59:16;;;;;;;8.05;5.43;;;16.80;99.90;;;;;;4983529;28;25140;-72
2022/06/29 04:01:41;;;;;;;8.23;5.70;;;16.90;99.90;;;;;;4986640;28;25069;-71
2022/06/29 04:04:07;;;;;;;9.85;5.57;;;16.90;99.90;;;;;;4990927;28;25075;-69
2022/06/29 04:06:33;;;;;;;10.43;5.40;;;16.90;99.90;;;;;;4980149;28;25145;-68
2022/06/29 04:08:58;;;;;;;6.68;5.75;;;16.90;99.90;;;;;;4984004;28;25053;-70
2022/06/29 04:14:08;;;;;;;12.25;6.18;;;16.90;99.90;;;;;;4977844;28;25053;-71
2022/06/29 04:16:34;;;;;;;8.85;5.70;;;16.90;99.90;;;;;;4984112;28;25122;-72
2022/06/29 04:18:59;;;;;;;6.20;4.95;;;16.90;99.90;;;;;;4978123;28;25120;-71
2022/06/29 04:21:26;;;;;;;9.82;5.80;;;17.00;99.90;;;;;;4972887;28;25054;-72
2022/06/29 04:23:52;;;;;;;11.15;6.07;;;17.10;99.90;;;;;;4978030;28;25104;-71
2022/06/29 04:26:19;;;;;;;10.70;5.85;;;17.00;99.90;;;;;;4974066;28;25090;-70
2022/06/29 04:28:44;;;;;;;8.05;6.07;;;17.10;99.90;;;;;;4976986;28;24739;-69
2022/06/29 04:31:10;;;;;;;7.55;5.28;;;17.10;99.90;;;;;;4987686;28;25074;-71
2022/06/29 04:33:36;;;;;;;12.80;5.85;;;17.10;99.90;;;;;;4990324;28;25044;-70
2022/06/29 04:36:02;;;;;;;8.15;6.10;;;17.10;99.90;;;;;;4975765;28;25078;-72
2022/06/29 04:38:27;;;;;;;7.20;5.80;;;17.10;99.90;;;;;;4971672;28;25071;-71
2022/06/29 04:40:53;;;;;;;7.70;5.88;;;17.20;99.90;;;;;;4967394;28;25059;-69
2022/06/29 04:43:19;;;;;;;9.13;6.13;;;17.20;99.90;;;;;;4973433;28;25128;-71
2022/06/29 04:48:29;;;;;;;8.68;5.90;;;17.10;99.90;;;;;;4984407;28;25061;-68
2022/06/29 04:50:55;;;;;;;10.75;6.82;;;17.10;99.90;;;;;;4986892;28;25081;-71
2022/06/29 04:53:20;;;;;;;10.20;6.65;;;17.20;99.90;;;;;;4978559;28;25122;-72
2022/06/29 04:55:46;;;;;;;8.85;6.22;;;17.30;99.90;;;;;;4975329;28;25097;-72
2022/06/29 04:58:12;;;;;;;8.20;6.82;;;17.30;99.90;;;;;;4966310;28;25068;-71
2022/06/29 05:00:37;;;;;;;10.43;6.20;;;17.40;99.90;;;;;;4977269;28;25104;-70
2022/06/29 05:03:03;;;;;;;10.93;7.38;;;17.40;99.90;;;;;;4980504;28;25064;-72
2022/06/29 05:05:29;;;;;;;12.52;6.70;;;17.50;99.90;;;;;;4975618;28;25061;-70
2022/06/29 05:07:55;;;;;;;7.50;5.97;;;17.50;99.90;;;;;;4985403;28;25093;-71
2022/06/29 05:10:21;;;;;;;11.65;6.10;;;17.50;99.90;;;;;;4971843;28;25057;-72
2022/06/29 05:12:48;;;;;;;8.98;6.13;;;17.70;99.90;;;;;;4966605;28;25120;-71
2022/06/29 05:15:14;;;;;;;10.15;6.75;;;17.80;99.90;;;;;;4993106;28;25073;-70
2022/06/29 05:17:40;;;;;;;9.00;6.32;;;17.80;99.90;;;;;;4976279;28;25100;-69
2022/06/29 05:20:08;;;;;;;8.43;6.95;;;17.90;99.90;;;;;;4979021;28;25294;-69
2022/06/29 05:22:35;;;;;;;10.75;6.65;;;18.00;99.90;;;;;;4976376;28;25133;-72
2022/06/29 05:25:03;;;;;;;11.73;6.63;;;18.10;99.90;;;;;;4983035;28;25076;-70
2022/06/29 05:27:30;;;;;;;8.07;5.93;;;18.20;99.90;;;;;;4980605;28;25105;-68
2022/06/29 05:29:56;;;;;;;9.05;6.05;;;18.40;99.90;;;;;;4981985;28;25046;-71
2022/06/29 05:32:23;;;;;;;10.65;5.97;;;18.60;99.90;;;;;;4990926;28;25092;-71
2022/06/29 05:34:48;;;;;;;8.07;6.47;;;18.60;99.90;;;;;;4992371;28;25240;-71
2022/06/29 05:37:16;;;;;;;9.13;6.55;;;18.70;99.90;;;;;;4970656;28;25060;-69
2022/06/29 05:39:44;;;;;;;7.80;6.25;;;18.70;99.90;;;;;;4983077;28;25066;-71
2022/06/29 05:42:12;;;;;;;9.05;6.50;;;18.70;99.90;;;;;;4980424;28;25106;-75
2022/06/29 05:44:38;;;;;;;8.48;6.97;;;18.80;99.90;;;;;;4985316;28;25133;-73
2022/06/29 05:47:06;;;;;;;12.25;6.30;;;18.80;99.90;;;;;;4976687;28;25061;-70
2022/06/29 05:49:34;;;;;;;10.30;6.88;;;19.00;99.90;;;;;;4970161;28;25061;-71
2022/06/29 05:52:01;;;;;;;8.98;6.90;;;19.20;99.90;;;;;;4979686;28;25046;-73
2022/06/29 05:54:27;;;;;;;8.63;6.15;;;19.30;99.90;;;;;;4958141;28;25079;-69
2022/06/29 05:56:53;;;;;;;14.07;6.05;;;19.50;99.90;;;;;;4989042;28;25161;-71
2022/06/29 05:59:19;;;;;;;7.75;6.07;;;19.60;99.90;;;;;;4980316;28;25075;-69
2022/06/29 06:01:45;;;;;;;11.35;6.35;;;19.70;99.90;;;;;;4979814;28;25107;-72
2022/06/29 06:04:11;;;;;;;9.43;6.03;;;19.90;99.90;;;;;;4965220;28;25069;-72
2022/06/29 06:06:36;;;;;;;11.55;5.97;;;20.10;99.90;;;;;;4978629;28;25083;-71
2022/06/29 06:09:02;;;;;;;13.55;6.82;;;20.20;99.90;;;;;;4979729;28;25137;-71
2022/06/29 06:11:28;;;;;;;8.02;6.07;;;20.40;99.90;;;;;;4981457;28;25077;-70
2022/06/29 06:13:53;;;;;;;10.13;6.72;;;20.70;99.90;;;;;;4979324;28;25088;-70
2022/06/29 06:16:19;;;;;;;8.48;5.97;;;21.00;99.90;;;;;;4985270;28;25144;-73
2022/06/29 06:18:45;;;;;;;9.77;6.38;;;21.00;99.90;;;;;;4975862;28;25065;-71
2022/06/29 06:21:11;;;;;;;13.63;7.35;;;21.20;99.90;;;;;;4978264;28;25148;-70
2022/06/29 06:23:36;;;;;;;8.05;6.05;;;21.30;99.90;;;;;;4973930;28;25059;-71
2022/06/29 06:26:02;;;;;;;12.25;5.75;;;21.30;99.90;;;;;;4996781;28;25055;-71
2022/06/29 06:28:28;;;;;;;8.80;6.43;;;21.70;99.90;;;;;;4989249;28;25051;-72
2022/06/29 06:30:53;;;;;;;9.75;5.55;;;21.80;99.90;;;;;;4984880;28;25070;-70
2022/06/29 06:33:19;;;;;;;10.48;5.60;;;22.00;99.90;;;;;;4986157;28;25071;-69
2022/06/29 06:35:44;;;;;;;9.15;5.50;;;22.30;99.90;;;;;;4977226;28;25070;-70
2022/06/29 06:38:10;;;;;;;9.57;5.43;;;22.60;99.90;;;;;;4981859;28;25073;-70
2022/06/29 06:43:20;;;;;;;10.45;5.57;;;22.90;99.90;;;;;;4984287;28;25095;-68
2022/06/29 06:45:46;;;;;;;9.50;4.80;;;22.80;99.90;;;;;;4984537;28;25078;-69
2022/06/29 06:48:12;;;;;;;8.90;5.38;;;22.90;99.90;;;;;;4977361;28;25059;-72
2022/06/29 06:50:37;;;;;;;7.13;4.75;;;23.20;99.90;;;;;;4973853;28;25104;-69
2022/06/29 06:53:03;;;;;;;6.90;4.63;;;23.30;99.90;;;;;;4981070;28;25082;-68
2022/06/29 06:55:29;;;;;;;5.90;5.20;;;23.20;99.90;;;;;;4981574;28;25071;-68
2022/06/29 06:57:55;;;;;;;6.95;4.72;;;23.20;99.90;;;;;;4982632;28;25071;-68
2022/06/29 07:00:21;;;;;;;9.68;4.72;;;23.30;99.90;;;;;;4990146;28;25078;-69
2022/06/29 07:02:47;;;;;;;10.07;4.93;;;23.40;99.90;;;;;;4983389;28;25104;-67
2022/06/29 07:05:12;;;;;;;6.00;4.32;;;23.40;99.90;;;;;;4990481;28;25129;-69
2022/06/29 07:07:39;;;;;;;5.53;4.38;;;23.40;99.90;;;;;;4987932;28;25064;-68
2022/06/29 07:10:05;;;;;;;6.97;4.20;;;23.50;99.90;;;;;;4982534;28;25069;-70
2022/06/29 07:12:31;;;;;;;14.60;4.43;;;24.00;99.90;;;;;;4988632;28;25112;-70
2022/06/29 07:14:56;;;;;;;7.68;4.05;;;24.30;99.90;;;;;;4983769;28;25063;-70
2022/06/29 07:17:22;;;;;;;9.68;3.95;;;24.50;99.90;;;;;;4973790;28;25063;-70
2022/06/29 07:19:48;;;;;;;6.28;4.03;;;24.50;98.30;;;;;;4971362;28;25102;-70
2022/06/29 07:22:13;;;;;;;5.20;3.70;;;24.70;98.60;;;;;;4971505;28;25099;-70
2022/06/29 07:24:39;;;;;;;7.07;3.75;;;24.80;98.40;;;;;;4966296;28;25081;-69
2022/06/29 07:27:05;;;;;;;6.35;3.65;;;25.10;95.90;;;;;;4967896;28;25094;-70
2022/06/29 07:29:30;;;;;;;5.00;4.10;;;25.00;94.60;;;;;;4973799;28;25112;-68
2022/06/29 07:31:56;;;;;;;12.05;5.50;;;25.00;93.90;;;;;;4972774;28;25084;-70
2022/06/29 07:34:22;;;;;;;9.77;4.82;;;24.90;94.30;;;;;;4990765;28;25103;-70
2022/06/29 07:36:47;;;;;;;8.50;4.72;;;25.00;94.10;;;;;;4985899;28;25073;-70
2022/06/29 07:39:13;;;;;;;9.13;5.30;;;24.90;93.60;;;;;;4987898;28;25062;-72
2022/06/29 07:41:38;;;;;;;11.63;4.75;;;25.00;93.10;;;;;;4990385;28;25069;-68
2022/06/29 07:44:05;;;;;;;6.95;4.35;;;24.60;93.60;;;;;;4994110;28;25094;-69
2022/06/29 07:46:30;;;;;;;8.63;3.58;;;24.80;96.90;;;;;;4979935;28;25062;-68
2022/06/29 07:48:56;;;;;;;9.23;4.28;;;25.40;96.80;;;;;;4986775;28;25071;-70
2022/06/29 07:51:22;;;;;;;7.43;3.55;;;25.80;93.60;;;;;;4988278;28;25074;-73
2022/06/29 07:53:48;;;;;;;5.43;3.00;;;26.20;90.80;;;;;;4987994;28;25082;-71
2022/06/29 07:56:13;;;;;;;6.35;3.75;;;26.00;84.40;;;;;;4977218;28;25077;-72
2022/06/29 07:58:39;;;;;;;9.20;3.72;;;26.10;82.70;;;;;;4980780;28;25066;-70
2022/06/29 08:01:05;;;;;;;6.30;3.53;;;26.10;87.00;;;;;;4983546;28;25061;-71
2022/06/29 08:03:31;;;;;;;9.35;3.70;;;26.30;86.40;;;;;;4990483;28;25067;-72
2022/06/29 08:05:58;;;;;;;5.28;3.40;;;26.70;91.20;;;;;;4985652;28;25084;-72
2022/06/29 08:08:24;;;;;;;8.00;3.78;;;26.90;88.90;;;;;;4974231;28;25055;-71
2022/06/29 08:10:50;;;;;;;5.07;3.38;;;27.10;84.90;;;;;;4978354;28;25060;-71
2022/06/29 08:13:17;;;;;;;4.57;3.03;;;27.00;83.30;;;;;;4966590;28;25170;-69
2022/06/29 08:15:45;;;;;;;5.78;2.83;;;27.20;77.80;;;;;;4974305;28;25083;-71
2022/06/29 08:18:14;;;;;;;5.63;3.15;;;27.10;68.60;;;;;;4974537;28;25064;-71
2022/06/29 08:20:40;;;;;;;7.95;2.75;;;26.90;65.80;;;;;;4985117;28;25066;-69
2022/06/29 08:23:06;;;;;;;5.50;3.00;;;26.50;64.40;;;;;;4970789;28;25081;-72
2022/06/29 08:25:32;;;;;;;5.95;3.28;;;26.90;69.00;;;;;;4971361;28;25084;-71
2022/06/29 08:27:58;;;;;;;7.10;3.20;;;27.30;65.10;;;;;;4969105;28;25116;-73
2022/06/29 08:30:24;;;;;;;8.57;2.90;;;27.60;56.50;;;;;;4978120;28;25065;-70
2022/06/29 08:32:50;;;;;;;4.95;2.83;;;27.80;52.70;;;;;;4974279;28;25148;-71
2022/06/29 08:35:17;;;;;;;8.23;3.58;;;27.30;54.40;;;;;;4970685;28;25123;-72
2022/06/29 08:37:44;;;;;;;6.13;2.90;;;27.00;51.30;;;;;;4972131;28;25062;-73
2022/06/29 08:40:13;;;;;;;5.63;3.20;;;27.00;50.30;;;;;;4976936;28;25063;-70
2022/06/29 08:42:39;;;;;;;8.38;2.70;;;27.20;66.80;;;;;;4978751;28;25059;-71
2022/06/29 08:45:06;;;;;;;4.90;3.08;;;27.30;66.10;;;;;;4989922;28;25073;-72
2022/06/29 08:47:32;;;;;;;6.53;3.28;;;27.40;62.10;;;;;;4988592;28;25146;-71
2022/06/29 08:49:59;;;;;;;4.38;3.22;;;27.70;54.70;;;;;;4978905;28;25067;-72
2022/06/29 08:52:26;;;;;;;6.65;3.40;;;27.70;52.80;;;;;;4961514;28;25017;-70
2022/06/29 08:54:53;;;;;;;7.20;3.25;;;27.30;65.20;;;;;;4968025;28;25083;-70
2022/06/29 08:57:21;;;;;;;6.65;3.63;;;27.70;72.50;;;;;;4971355;28;25053;-71
2022/06/29 08:59:47;;;;;;;6.38;3.30;;;28.00;64.60;;;;;;4976973;28;25068;-68
2022/06/29 09:02:13;;;;;;;8.52;3.90;;;27.90;65.30;;;;;;4971883;28;25144;-68
2022/06/29 09:04:39;;;;;;;7.07;3.58;;;28.20;60.00;;;;;;4969963;28;25080;-68
2022/06/29 09:07:05;;;;;;;5.22;3.10;;;28.40;53.50;;;;;;4967171;28;25096;-69
2022/06/29 09:09:51;;;;;;;4.35;2.80;;;28.60;53.50;;;;;;4967144;28;25144;-69
2022/06/29 09:12:18;;;;;;;7.13;3.28;;;28.80;53.30;;;;;;4966812;28;25078;-69
2022/06/29 09:14:44;;;;;;;6.22;2.92;;;29.00;42.00;;;;;;4976109;28;25068;-71
2022/06/29 09:17:10;;;;;;;6.53;2.53;;;28.90;46.50;;;;;;4972321;28;25066;-69
2022/06/29 09:19:35;;;;;;;5.25;3.17;;;29.00;45.20;;;;;;4975973;28;25104;-69
2022/06/29 09:22:02;;;;;;;7.70;3.17;;;28.60;36.80;;;;;;4973116;28;25098;-70
2022/06/29 09:24:33;;;;;;;4.53;2.63;;;28.70;44.00;;;;;;4980353;28;25077;-70
2022/06/29 09:27:03;;;;;;;4.63;2.65;;;28.90;45.00;;;;;;4982474;28;25162;-69
2022/06/29 09:29:35;;;;;;;8.57;2.60;;;28.70;32.00;;;;;;4985712;28;25068;-68
2022/06/29 09:32:04;;;;;;;4.07;2.70;;;28.50;46.50;;;;;;4981685;28;25051;-69
2022/06/29 09:34:39;;;;;;;8.52;2.67;;;28.80;35.20;;;;;;4969182;28;25069;-70
2022/06/29 09:37:32;;;;;;;2.80;1.80;;;28.90;36.70;;;;;;4971731;28;25100;-70
2022/06/29 09:42:46;;;;;;;5.13;2.60;;;29.00;21.30;;;;;;4975033;28;25080;-70
2022/06/29 09:45:12;;;;;;;5.78;2.15;;;28.90;29.30;;;;;;4990350;28;25080;-70
2022/06/29 09:47:40;;;;;;;5.43;1.98;;;28.80;37.60;;;;;;4982936;28;25080;-72
2022/06/29 09:50:09;;;;;;;6.85;2.38;;;29.30;39.70;;;;;;4978354;28;25022;-72
2022/06/29 09:52:38;;;;;;;2.72;2.30;;;29.70;16.90;;;;;;4973863;28;25167;-70
2022/06/29 09:55:06;;;;;;;5.20;2.63;;;29.30;10.10;;;;;;4980450;28;25104;-73
2022/06/29 09:57:35;;;;;;;3.22;2.20;;;29.00;19.10;;;;;;4978403;28;25057;-73
2022/06/29 10:02:49;;;;;;;4.13;2.08;;;29.40;20.30;;;;;;4979797;28;25052;-71
2022/06/29 10:05:22;;;;;;;2.63;2.03;;;29.50;10.50;;;;;;4986031;28;25147;-71
2022/06/29 10:07:53;;;;;;;6.13;3.05;;;30.00;8.70;;;;;;4973012;28;25049;-75
2022/06/29 10:10:24;;;;;;;6.70;2.40;;;29.90;1.00;;;;;;4977260;28;25140;-72
2022/06/29 10:16:17;;;;;;;4.93;2.45;;;29.30;7.70;;;;;;4980896;28;25081;-67
2022/06/29 10:18:43;;;;;;;4.47;2.08;;;29.60;19.10;;;;;;4977905;28;25071;-70
2022/06/29 10:21:13;;;;;;;4.07;2.00;;;29.50;4.20;;;;;;4981996;28;25069;-72
2022/06/29 10:23:53;;;;;;;5.38;2.10;;;29.50;11.90;;;;;;4977860;28;25105;-71
2022/06/29 10:26:28;;;;;;;3.92;1.92;;;29.80;10.80;;;;;;4981538;28;25073;-71
2022/06/29 10:29:14;;;;;;;5.38;2.50;;;29.80;11.00;;;;;;4981256;28;25052;-70
2022/06/29 10:31:51;;;;;;;3.72;2.80;;;29.50;10.60;;;;;;4980923;28;25056;-71
2022/06/29 10:34:41;;;;;;;6.28;2.25;;;29.30;1.00;;;;;;4976589;28;25066;-71
2022/06/29 10:37:12;;;;;;;6.00;2.40;;;29.70;3.70;;;;;;4975100;28;25062;-69
2022/06/29 10:39:44;;;;;;;;;;;29.90;1.00;;;;;;4985274;28;25051;-70
2022/06/29 10:45:24;;;;;;;4.63;2.30;;;30.10;1.00;;;;;;4978645;28;25056;-70
2022/06/29 10:47:56;;;;;;;5.47;2.50;;;30.20;1.00;;;;;;4991323;28;25061;-69
2022/06/29 10:50:25;;;;;;;;;;;30.00;1.00;;;;;;4984579;28;25050;-72
2022/06/29 10:52:54;;;;;;;5.40;1.77;;;30.50;1.00;;;;;;4985428;28;24060;-69
2022/06/29 10:55:21;;;;;;;5.40;2.15;;;30.70;1.00;;;;;;4986313;28;25049;-70
2022/06/29 10:57:47;;;;;;;9.02;2.53;;;30.40;1.00;;;;;;4990334;28;25085;-71
2022/06/29 11:00:40;;;;;;;7.25;1.88;;;30.10;1.00;;;;;;4986741;28;25075;-71
2022/06/29 11:03:18;;;;;;;6.28;2.42;;;30.50;1.00;;;;;;4974925;28;25107;-69
2022/06/29 11:15:39;;;;;;;4.22;1.63;;;30.00;1.00;;;;;;4982103;28;25157;-70
2022/06/29 11:16:55;;;;;;;7.03;1.77;;;30.10;1.00;;;;;;4989822;28;25073;-71
2022/06/29 11:19:27;;;;;;;3.00;1.65;;;30.70;1.00;;;;;;4981531;28;25100;-69
2022/06/29 11:22:15;;;;;;;5.50;1.25;;;31.00;1.00;;;;;;4985591;28;25084;-71
2022/06/29 11:24:54;;;;;;;2.67;1.15;;;30.80;1.00;;;;;;4973030;28;25059;-70
2022/06/29 11:27:39;;;;;;;3.55;1.50;;;30.80;1.00;;;;;;4979687;28;25068;-71
2022/06/29 11:30:10;;;;;;;3.95;1.42;;;30.90;1.00;;;;;;4969253;28;25056;-74
2022/06/29 11:32:48;;;;;;;2.22;1.40;;;30.80;1.00;;;;;;4984405;28;25078;-69
2022/06/29 11:35:17;;;;;;;2.17;1.10;;;30.30;1.00;;;;;;4999530;28;25085;-69
2022/06/29 11:38:01;;;;;;;5.65;1.40;;;29.70;1.00;;;;;;4987406;28;25107;-71
2022/06/29 11:40:40;;;;;;;9.60;1.70;;;29.70;1.00;;;;;;4984002;28;25072;-72
2022/06/29 11:43:15;;;;;;;4.82;1.50;;;29.90;1.00;;;;;;5000811;28;25069;-68
2022/06/29 11:45:48;;;;;;;6.50;2.38;;;29.70;1.00;;;;;;4993619;28;25070;-71
2022/06/29 11:48:21;;;;;;;4.00;1.75;;;29.50;1.00;;;;;;5009680;28;25124;-71
2022/06/29 11:50:54;;;;;;;5.50;1.58;;;29.30;1.00;;;;;;4985941;28;25072;-72
2022/06/29 11:53:36;;;;;;;11.38;2.10;;;29.10;1.00;;;;;;4987113;28;25060;-70
2022/06/29 11:56:06;;;;;;;;;;;29.00;1.00;;;;;;4983808;28;25067;-72
2022/06/29 11:58:33;;;;;;;11.00;2.45;;;29.10;1.00;;;;;;4993826;28;25101;-69
2022/06/29 12:01:00;;;;;;;5.40;1.98;;;29.50;1.00;;;;;;4997934;28;25077;-71
2022/06/29 12:03:26;;;;;;;7.20;1.70;;;29.40;1.00;;;;;;4983556;28;25053;-69
2022/06/29 12:05:59;;;;;;;5.38;2.22;;;29.30;1.00;;;;;;4984749;28;25109;-72
2022/06/29 12:08:29;;;;;;;5.70;2.13;;;29.30;1.00;;;;;;4995032;28;25091;-73
2022/06/29 12:10:56;;;;;;;5.03;2.45;;;29.30;1.00;;;;;;4982296;28;25102;-71
2022/06/29 12:13:21;;;;;;;6.07;2.28;;;29.30;1.00;;;;;;4992798;28;25079;-71
2022/06/29 12:15:47;;;;;;;3.20;1.80;;;29.20;1.00;;;;;;4979298;28;25135;-71
2022/06/29 12:18:14;;;;;;;11.75;2.25;;;29.10;1.00;;;;;;4974477;28;25143;-70
2022/06/29 12:20:40;;;;;;;3.55;2.00;;;28.90;1.00;;;;;;4982971;28;25054;-71
2022/06/29 12:23:05;;;;;;;5.47;2.38;;;29.00;1.00;;;;;;4974168;28;25063;-72
2022/06/29 12:25:31;;;;;;;5.22;2.30;;;29.30;1.00;;;;;;4997574;28;25149;-72
2022/06/29 12:27:56;;;;;;;7.78;2.13;;;29.20;1.00;;;;;;4977860;28;25059;-74
2022/06/29 12:30:22;;;;;;;4.65;1.80;;;28.90;1.00;;;;;;4980441;28;25150;-71
2022/06/29 12:32:48;;;;;;;3.75;1.90;;;28.80;1.00;;;;;;4972864;28;25083;-72
2022/06/29 12:35:13;;;;;;;6.00;2.28;;;28.60;1.00;;;;;;4972699;28;25075;-70
2022/06/29 12:37:43;;;;;;;5.32;2.20;;;28.70;1.00;;;;;;4977162;28;25052;-71
2022/06/29 12:40:13;;;;;;;2.92;2.13;;;28.90;1.00;;;;;;4965324;28;25087;-73
2022/06/29 12:42:39;;;;;;;4.22;1.90;;;28.80;1.00;;;;;;4980710;28;25058;-73
2022/06/29 12:45:06;;;;;;;5.75;1.90;;;28.80;1.00;;;;;;4972564;28;25160;-71
2022/06/29 12:47:32;;;;;;;4.75;2.35;;;28.90;1.00;;;;;;4977056;28;25071;-71
2022/06/29 12:50:00;;;;;;;5.57;2.58;;;29.10;1.00;;;;;;4981458;28;25132;-72
2022/06/29 12:52:25;;;;;;;8.82;2.30;;;29.20;1.00;;;;;;4984163;28;25168;-71
2022/06/29 12:54:51;;;;;;;7.45;2.10;;;29.40;1.00;;;;;;4975888;28;25154;-73
2022/06/29 12:57:16;;;;;;;6.05;1.80;;;29.10;1.00;;;;;;4982792;28;25078;-73
2022/06/29 12:59:45;;;;;;;11.90;1.80;;;28.90;1.00;;;;;;4976389;28;25131;-72
2022/06/29 13:02:12;;;;;;;5.90;2.38;;;29.00;1.00;;;;;;4981387;28;25155;-73
2022/06/29 13:04:37;;;;;;;6.10;2.10;;;29.20;1.00;;;;;;4980455;28;25058;-73
2022/06/29 13:07:03;;;;;;;8.48;2.13;;;29.30;1.00;;;;;;4974497;28;25069;-72
2022/06/29 13:09:30;;;;;;;5.18;2.20;;;29.00;1.00;;;;;;4977966;28;25126;-71
2022/06/29 13:11:56;;;;;;;6.60;2.05;;;28.90;1.00;;;;;;4975744;28;25085;-74
2022/06/29 13:14:21;;;;;;;8.23;2.00;;;28.80;1.00;;;;;;4972894;28;25102;-73
2022/06/29 13:16:48;;;;;;;6.18;2.08;;;28.60;1.00;;;;;;4974432;28;25051;-74
2022/06/29 13:19:14;;;;;;;7.90;1.90;;;28.50;1.00;;;;;;4975001;28;25164;-72
2022/06/29 13:21:40;;;;;;;4.63;2.10;;;28.50;1.00;;;;;;4977466;28;25102;-74
2022/06/29 13:24:06;;;;;;;5.13;2.03;;;28.70;1.00;;;;;;4973477;28;25105;-72